Time;durP1;ratioP1;P1;durP2;ratioP2;P2;SDS_P1;SDS_P2;PMS_P1;PMS_P2;Temp;Humidity;BMP_temperature;BMP_pressure;BME280_temperature;BME280_humidity;BME280_pressure;Samples;Min_cycle;Max_cycle;Signal;HPM_P1;HPM_P2
2021/09/24 00:00:53;;;;;;;6.77;6.07;;;;;;;10.01;71.96;95245.88;5112905;28;20440;-79
2021/09/24 00:03:20;;;;;;;5.63;5.10;;;;;;;10.04;71.96;95240.41;5112666;28;20442;-78
2021/09/24 00:05:47;;;;;;;6.47;5.80;;;;;;;10.11;72.03;95253.88;5112534;28;20453;-79
2021/09/24 00:08:14;;;;;;;7.10;6.30;;;;;;;10.12;72.11;95255.53;5112810;28;20449;-79
2021/09/24 00:10:41;;;;;;;8.43;6.43;;;;;;;10.13;72.29;95244.97;5112446;28;20897;-79
2021/09/24 00:13:08;;;;;;;7.70;5.40;;;;;;;10.11;72.36;95244.22;5112694;28;20449;-79
2021/09/24 00:15:37;;;;;;;7.23;6.03;;;;;;;10.13;71.75;95238.88;5112450;28;20504;-79
2021/09/24 00:18:04;;;;;;;10.37;6.50;;;;;;;10.06;71.82;95233.25;5113108;28;20448;-79
2021/09/24 00:20:31;;;;;;;8.70;6.40;;;;;;;10.05;71.71;95225.50;5093539;28;20449;-79
2021/09/24 00:22:58;;;;;;;7.63;5.90;;;;;;;10.07;71.67;95234.94;5112667;28;20445;-79
2021/09/24 00:25:25;;;;;;;6.40;5.77;;;;;;;10.07;71.40;95234.94;5112535;28;20443;-79
2021/09/24 00:27:52;;;;;;;5.90;5.30;;;;;;;10.07;71.90;95236.72;5112448;28;20435;-79
2021/09/24 00:30:19;;;;;;;7.80;6.00;;;;;;;10.00;71.90;95233.72;5076320;28;20449;-79
2021/09/24 00:32:47;;;;;;;9.00;5.50;;;;;;;10.00;71.85;95232.91;5112350;28;20445;-78
2021/09/24 00:35:14;;;;;;;6.97;6.27;;;;;;;9.97;71.45;95228.72;5112359;28;20485;-79
2021/09/24 00:37:41;;;;;;;18.10;5.37;;;;;;;10.00;72.39;95230.28;5112865;28;20442;-79
2021/09/24 00:40:11;;;;;;;8.30;6.47;;;;;;;9.92;71.27;95223.00;5076629;28;20437;-79
2021/09/24 00:42:38;;;;;;;7.67;6.57;;;;;;;9.92;71.41;95221.22;5112341;28;20449;-79
2021/09/24 00:45:07;;;;;;;7.47;6.40;;;;;;;9.92;71.52;95215.97;5112455;28;20521;-79
2021/09/24 00:47:33;;;;;;;6.50;5.90;;;;;;;9.90;71.35;95212.66;5076370;28;20439;-78
2021/09/24 00:50:02;;;;;;;7.60;6.80;;;;;;;9.87;72.29;95210.25;5115407;28;20445;-79
2021/09/24 00:52:29;;;;;;;6.97;6.10;;;;;;;9.84;72.48;95207.88;5116393;28;20442;-79
2021/09/24 00:54:56;;;;;;;10.00;6.60;;;;;;;9.87;72.91;95206.81;5116112;28;20484;-79
2021/09/24 00:57:23;;;;;;;6.60;6.00;;;;;;;9.86;72.67;95202.53;5116319;28;20447;-78
2021/09/24 00:59:51;;;;;;;6.93;6.00;;;;;;;9.82;71.81;95199.28;5116257;28;20441;-79
2021/09/24 01:02:19;;;;;;;8.37;6.20;;;;;;;9.78;72.59;95199.63;5097052;28;20995;-78
2021/09/24 01:04:46;;;;;;;6.07;5.53;;;;;;;9.76;72.32;95206.78;5116129;28;20442;-78
2021/09/24 01:07:15;;;;;;;6.73;6.07;;;;;;;9.74;72.40;95195.59;5116260;28;20453;-79
2021/09/24 01:09:42;;;;;;;6.17;5.57;;;;;;;9.67;72.56;95190.00;5115895;28;20427;-79
2021/09/24 01:12:10;;;;;;;7.20;6.20;;;;;;;9.72;72.79;95190.47;5116474;28;20449;-78
2021/09/24 01:14:37;;;;;;;9.03;6.10;;;;;;;9.64;71.97;95190.22;5080043;28;21015;-79
2021/09/24 01:17:04;;;;;;;6.63;5.80;;;;;;;9.66;72.56;95179.63;5096772;28;20441;-79
2021/09/24 01:19:31;;;;;;;5.50;5.00;;;;;;;9.60;72.46;95184.38;5115956;28;20878;-79
2021/09/24 01:22:00;;;;;;;6.87;6.17;;;;;;;9.66;72.11;95182.25;5115802;28;20517;-79
2021/09/24 01:24:27;;;;;;;6.77;6.07;;;;;;;9.68;72.10;95185.59;5115596;28;20966;-79
2021/09/24 01:26:55;;;;;;;6.23;5.40;;;;;;;9.59;72.54;95171.41;5115991;28;20439;-78
2021/09/24 01:29:24;;;;;;;6.83;5.73;;;;;;;9.52;72.11;95178.88;5096513;28;20440;-79
2021/09/24 01:31:51;;;;;;;7.27;6.13;;;;;;;9.54;72.49;95176.13;5115697;28;20864;-79
2021/09/24 01:34:18;;;;;;;5.23;4.80;;;;;;;9.55;72.20;95169.97;5115467;28;20482;-79
2021/09/24 01:36:45;;;;;;;8.97;5.63;;;;;;;9.53;72.46;95167.44;5115499;28;20452;-78
2021/09/24 01:39:14;;;;;;;5.73;5.17;;;;;;;9.57;72.95;95168.91;5115407;28;20462;-78
2021/09/24 01:41:44;;;;;;;7.20;5.77;;;;;;;9.61;71.96;95164.25;5115569;28;20807;-79
2021/09/24 01:44:12;;;;;;;6.40;5.40;;;;;;;9.47;72.64;95156.59;5115210;28;20448;-78
2021/09/24 01:46:40;;;;;;;7.57;5.60;;;;;;;9.54;73.15;95161.28;5115228;28;20483;-79
2021/09/24 01:49:08;;;;;;;6.60;5.63;;;;;;;9.59;72.43;95160.94;5115240;28;20441;-79
2021/09/24 01:51:35;;;;;;;6.23;5.03;;;;;;;9.60;73.45;95167.84;5115030;28;20440;-79
2021/09/24 01:54:03;;;;;;;7.17;5.50;;;;;;;9.61;72.70;95159.03;5115165;28;20449;-78
2021/09/24 01:56:31;;;;;;;6.30;5.70;;;;;;;9.62;73.13;95155.44;5114965;28;20449;-79
2021/09/24 01:58:58;;;;;;;6.87;6.13;;;;;;;9.61;73.13;95161.63;5115118;28;20800;-79
2021/09/24 02:01:25;;;;;;;7.43;5.60;;;;;;;9.62;73.19;95160.69;5094638;28;20437;-78
2021/09/24 02:03:52;;;;;;;7.23;6.47;;;;;;;9.60;72.73;95159.97;5079043;28;20826;-79
2021/09/24 02:06:19;;;;;;;7.37;6.43;;;;;;;9.66;73.45;95161.28;5114923;28;20446;-79
2021/09/24 02:08:46;;;;;;;6.27;5.67;;;;;;;9.66;72.84;95162.13;5114958;28;20437;-79
2021/09/24 02:11:13;;;;;;;6.40;5.73;;;;;;;9.56;73.02;95159.38;5114865;28;20451;-79
2021/09/24 02:13:42;;;;;;;7.37;6.57;;;;;;;9.52;73.13;95155.28;5079035;28;20444;-79
2021/09/24 02:16:11;;;;;;;9.23;6.07;;;;;;;9.51;72.84;95155.41;5114833;28;20480;-79
2021/09/24 02:18:40;;;;;;;6.73;6.07;;;;;;;9.53;73.50;95166.59;5114828;28;20445;-79
2021/09/24 02:21:07;;;;;;;6.63;6.07;;;;;;;9.53;73.57;95156.97;5114801;28;20433;-79
2021/09/24 02:23:34;;;;;;;7.13;6.27;;;;;;;9.48;73.55;95158.28;5114478;28;20451;-78
2021/09/24 02:26:02;;;;;;;6.90;6.13;;;;;;;9.47;73.51;95159.22;5114381;28;20910;-79
2021/09/24 02:28:29;;;;;;;8.23;6.13;;;;;;;9.47;73.27;95151.38;5114461;28;20932;-79
2021/09/24 02:30:57;;;;;;;6.50;5.97;;;;;;;9.45;73.67;95158.50;5114673;28;20440;-78
2021/09/24 02:33:24;;;;;;;8.57;6.43;;;;;;;9.44;73.72;95154.22;5114758;28;20441;-78
2021/09/24 02:35:53;;;;;;;8.00;6.13;;;;;;;9.29;73.90;95156.22;5114216;28;20480;-79
2021/09/24 02:38:20;;;;;;;7.47;6.53;;;;;;;9.27;74.38;95156.34;5114281;28;20441;-78
2021/09/24 02:40:47;;;;;;;7.80;6.60;;;;;;;9.20;74.67;95155.13;5114405;28;20448;-78
2021/09/24 02:43:14;;;;;;;7.63;6.30;;;;;;;9.17;75.50;95147.50;5114169;28;20811;-79
2021/09/24 02:45:41;;;;;;;6.47;5.87;;;;;;;9.13;75.05;95148.69;5114319;28;20487;-79
2021/09/24 02:48:09;;;;;;;7.53;6.00;;;;;;;8.99;74.90;95141.88;5114127;28;20441;-79
2021/09/24 02:50:36;;;;;;;8.30;7.20;;;;;;;8.95;75.22;95139.56;5114112;28;20452;-79
2021/09/24 02:53:03;;;;;;;8.87;7.93;;;;;;;8.92;75.79;95139.81;5113967;28;20449;-79
2021/09/24 02:55:30;;;;;;;13.80;9.50;;;;;;;8.65;77.09;95147.91;5114096;28;20484;-79
2021/09/24 02:57:57;;;;;;;16.63;10.63;;;;;;;8.74;76.84;95152.47;5111975;28;20451;-79
2021/09/24 03:00:25;;;;;;;14.90;10.17;;;;;;;8.76;76.60;95144.53;5113853;28;20454;-79
2021/09/24 03:02:52;;;;;;;13.30;10.23;;;;;;;8.82;76.70;95144.06;5113932;28;20459;-79
2021/09/24 03:05:21;;;;;;;15.30;9.20;;;;;;;8.86;76.24;95143.72;5114093;28;20447;-79
2021/09/24 03:07:48;;;;;;;10.83;8.23;;;;;;;8.89;76.91;95140.88;5114110;28;20461;-79
2021/09/24 03:10:15;;;;;;;9.20;7.73;;;;;;;8.87;76.82;95141.94;5113640;28;20449;-79
2021/09/24 03:12:42;;;;;;;8.70;7.30;;;;;;;8.92;76.08;95148.50;5113614;28;20440;-79
2021/09/24 03:15:11;;;;;;;8.17;7.37;;;;;;;8.95;76.56;95150.03;5077489;28;20480;-79
2021/09/24 03:17:38;;;;;;;7.57;6.87;;;;;;;8.94;76.39;95164.06;5113685;28;20467;-79
2021/09/24 03:20:08;;;;;;;7.33;6.40;;;;;;;8.92;76.76;95155.50;5113584;28;20437;-78
2021/09/24 03:22:36;;;;;;;7.50;6.73;;;;;;;8.94;75.91;95148.38;5077532;28;20447;-79
2021/09/24 03:25:04;;;;;;;8.40;7.53;;;;;;;8.94;76.28;95146.59;5113497;28;20459;-79
2021/09/24 03:27:31;;;;;;;7.60;6.90;;;;;;;8.84;76.88;95143.00;5113501;28;20449;-79
2021/09/24 03:29:58;;;;;;;10.07;7.70;;;;;;;8.84;77.08;95131.69;5113429;28;20455;-79
2021/09/24 03:32:25;;;;;;;8.23;7.37;;;;;;;8.83;76.86;95128.25;5113180;28;20452;-79
2021/09/24 03:34:52;;;;;;;8.80;7.10;;;;;;;8.87;76.67;95131.47;5113260;28;20480;-79
2021/09/24 03:37:19;;;;;;;8.13;7.27;;;;;;;8.88;76.75;95130.53;5112987;28;20451;-79
2021/09/24 03:39:47;;;;;;;7.53;6.83;;;;;;;8.89;77.24;95129.56;5077117;28;20963;-79
2021/09/24 03:42:14;;;;;;;9.83;7.70;;;;;;;8.93;77.33;95136.25;5113296;28;20531;-79
2021/09/24 03:44:41;;;;;;;7.90;7.13;;;;;;;8.92;77.04;95129.34;5113530;28;20746;-79
2021/09/24 03:47:08;;;;;;;8.70;7.83;;;;;;;8.91;77.41;95125.06;5112934;28;20466;-78
2021/09/24 03:49:35;;;;;;;7.23;6.53;;;;;;;8.88;77.66;95130.53;5113015;28;20938;-79
2021/09/24 03:52:02;;;;;;;6.40;5.80;;;;;;;8.92;77.69;95129.34;5113088;28;20438;-79
2021/09/24 03:54:31;;;;;;;10.03;7.10;;;;;;;8.93;77.77;95125.78;5113007;28;20437;-79
2021/09/24 03:57:01;;;;;;;7.80;7.00;;;;;;;8.94;77.50;95137.91;5113202;28;20540;-79
2021/09/24 03:59:28;;;;;;;8.93;7.40;;;;;;;8.99;77.36;95144.50;5112986;28;20448;-79
2021/09/24 04:01:55;;;;;;;6.93;6.33;;;;;;;9.04;77.80;95141.53;5110429;28;20448;-79
2021/09/24 04:04:22;;;;;;;8.20;7.10;;;;;;;9.04;77.32;95146.75;5112587;28;20444;-79
2021/09/24 04:06:48;;;;;;;8.70;7.40;;;;;;;9.09;77.71;95139.41;5112666;28;20533;-79
2021/09/24 04:09:15;;;;;;;8.13;7.00;;;;;;;9.05;77.99;95129.28;5112570;28;20455;-79
2021/09/24 04:11:42;;;;;;;11.00;7.20;;;;;;;9.09;77.45;95126.31;5112691;28;20977;-78
2021/09/24 04:14:11;;;;;;;8.03;6.40;;;;;;;9.13;77.63;95125.13;5112817;28;20448;-79
2021/09/24 04:16:37;;;;;;;9.10;8.00;;;;;;;9.12;77.46;95114.75;5112434;28;20480;-79
2021/09/24 04:19:04;;;;;;;8.97;6.80;;;;;;;9.06;78.15;95118.69;5093634;28;20445;-79
2021/09/24 04:21:31;;;;;;;8.23;7.20;;;;;;;9.03;77.79;95116.31;5112914;28;20773;-79
2021/09/24 04:23:58;;;;;;;9.77;7.80;;;;;;;9.08;77.61;95118.56;5112018;28;20449;-79
2021/09/24 04:26:25;;;;;;;7.53;6.80;;;;;;;9.12;77.79;95117.38;5113055;28;20843;-79
2021/09/24 04:28:53;;;;;;;8.17;6.70;;;;;;;9.16;77.28;95122.28;5112843;28;20446;-79
2021/09/24 04:31:21;;;;;;;11.53;6.87;;;;;;;9.15;77.36;95125.84;5112282;28;20448;-79
2021/09/24 04:33:48;;;;;;;8.20;6.87;;;;;;;9.18;76.99;95130.84;5116638;28;20799;-78
2021/09/24 04:36:15;;;;;;;9.43;6.60;;;;;;;9.03;77.46;95128.56;5112313;28;20489;-78
2021/09/24 04:38:42;;;;;;;12.00;7.10;;;;;;;9.09;78.06;95134.16;5112461;28;20441;-78
2021/09/24 04:41:09;;;;;;;8.57;7.60;;;;;;;8.97;78.04;95127.25;5112274;28;20446;-78
2021/09/24 04:43:36;;;;;;;10.07;9.07;;;;;;;8.93;78.60;95125.78;5112828;28;20448;-78
2021/09/24 04:46:02;;;;;;;13.30;9.10;;;;;;;9.02;78.32;95117.25;5112337;28;20491;-78
2021/09/24 04:48:32;;;;;;;13.37;9.43;;;;;;;8.93;78.57;95125.78;5112409;28;20453;-78
2021/09/24 04:50:59;;;;;;;10.87;8.60;;;;;;;9.10;78.41;95119.28;5112507;28;20453;-78
2021/09/24 04:53:26;;;;;;;17.40;8.50;;;;;;;9.25;78.09;95120.72;5112355;28;20448;-79
2021/09/24 04:55:53;;;;;;;13.50;8.30;;;;;;;9.38;78.66;95125.88;5112234;28;20478;-78
2021/09/24 04:58:20;;;;;;;9.43;8.53;;;;;;;9.42;77.61;95120.28;5112371;28;20795;-78
2021/09/24 05:00:49;;;;;;;13.50;8.90;;;;;;;9.52;77.06;95131.72;5112136;28;20484;-78
2021/09/24 05:03:16;;;;;;;8.83;6.90;;;;;;;9.61;77.59;95128.41;5112588;28;20437;-79
2021/09/24 05:05:44;;;;;;;11.87;8.37;;;;;;;9.54;76.90;95131.59;5113391;28;20823;-79
2021/09/24 05:08:11;;;;;;;11.73;7.87;;;;;;;9.65;76.93;95136.03;5112944;28;20457;-78
2021/09/24 05:10:38;;;;;;;14.10;7.90;;;;;;;9.74;77.34;95125.66;5077413;28;20510;-77
2021/09/24 05:13:06;;;;;;;17.93;8.30;;;;;;;9.85;77.00;95132.72;5076957;28;20424;-78
2021/09/24 05:15:33;;;;;;;12.93;8.73;;;;;;;9.96;77.39;95139.72;5113323;28;20845;-78
2021/09/24 05:18:00;;;;;;;11.27;9.53;;;;;;;10.16;77.26;95141.63;5113313;28;20476;-77
2021/09/24 05:20:27;;;;;;;13.50;8.60;;;;;;;10.41;76.34;95145.78;5112947;28;20790;-77
2021/09/24 05:22:55;;;;;;;8.90;7.83;;;;;;;10.60;74.32;95147.75;5113057;28;20446;-79
2021/09/24 05:25:22;;;;;;;23.17;9.33;;;;;;;10.77;73.63;95149.84;5112784;28;20453;-80
2021/09/24 05:27:49;;;;;;;15.20;8.40;;;;;;;10.98;73.66;95152.50;5110635;28;21173;-82
2021/09/24 05:30:16;;;;;;;15.40;9.37;;;;;;;11.32;73.74;95135.63;5112772;28;20453;-81
2021/09/24 05:32:44;;;;;;;14.67;8.20;;;;;;;11.67;70.21;95140.53;5076900;28;20437;-80
2021/09/24 05:35:12;;;;;;;25.83;11.93;;;;;;;12.10;79.02;95129.78;5114230;28;20445;-79
2021/09/24 05:37:39;;;;;;;52.33;23.90;;;;;;;12.54;80.54;95124.25;5116566;28;20439;-83
2021/09/24 05:40:10;;;;;;;52.60;19.00;;;;;;;12.86;72.59;95127.44;5116162;28;20527;-79
2021/09/24 05:42:37;;;;;;;58.03;29.20;;;;;;;13.37;73.81;95123.72;5116534;28;20436;-80
2021/09/24 05:45:07;;;;;;;34.87;20.30;;;;;;;13.91;69.29;95112.47;5118061;28;20967;-81
2021/09/24 05:47:33;;;;;;;24.67;17.33;;;;;;;14.52;64.36;95113.72;5118990;28;20527;-81
2021/09/24 05:50:00;;;;;;;26.63;14.17;;;;;;;15.10;62.12;95106.19;5097625;28;20424;-82
2021/09/24 05:52:28;;;;;;;22.90;14.10;;;;;;;15.61;59.06;95098.50;5116095;28;20447;-79
2021/09/24 05:54:55;;;;;;;8.20;7.40;;;;;;;15.95;56.98;95101.19;5116433;28;20587;-82
2021/09/24 05:57:25;;;;;;;8.60;7.40;;;;;;;16.28;57.01;95095.06;5116052;28;20489;-82
2021/09/24 05:59:52;;;;;;;10.50;8.93;;;;;;;16.38;52.16;95089.63;5115853;28;20438;-83
2021/09/24 06:02:18;;;;;;;14.40;7.67;;;;;;;16.46;53.63;95097.59;5116280;28;20767;-82
2021/09/24 06:04:45;;;;;;;9.50;7.47;;;;;;;16.40;52.92;95091.09;5115798;28;20804;-83
2021/09/24 06:07:12;;;;;;;9.47;7.13;;;;;;;16.17;53.67;95094.50;5116594;28;20451;-84
2021/09/24 06:09:39;;;;;;;9.50;8.60;;;;;;;15.89;53.96;95102.63;5115690;28;20445;-81
2021/09/24 06:12:07;;;;;;;12.73;8.87;;;;;;;16.06;53.63;95112.31;5115791;28;20985;-81
2021/09/24 06:14:35;;;;;;;10.27;7.63;;;;;;;15.99;53.97;95119.25;5080158;28;20446;-83
2021/09/24 06:17:02;;;;;;;12.53;8.83;;;;;;;16.07;53.72;95121.94;5079827;28;20477;-82
2021/09/24 06:19:29;;;;;;;9.47;7.73;;;;;;;16.00;53.34;95120.91;5115728;28;20900;-80
2021/09/24 06:21:56;;;;;;;12.80;9.70;;;;;;;15.76;53.99;95124.22;5115793;28;20527;-80
2021/09/24 06:24:23;;;;;;;10.73;8.23;;;;;;;16.17;52.68;95120.97;5115688;28;20537;-82
2021/09/24 06:26:50;;;;;;;10.40;8.70;;;;;;;16.23;50.69;95123.00;5116172;28;20441;-84
2021/09/24 06:29:17;;;;;;;10.23;9.13;;;;;;;16.29;51.05;95132.97;5113652;28;20446;-84
2021/09/24 06:31:45;;;;;;;9.47;8.03;;;;;;;16.53;52.85;95125.09;5115868;28;20534;-87
2021/09/24 06:34:12;;;;;;;17.37;9.50;;;;;;;16.53;50.02;95119.81;5115726;28;20446;-87
2021/09/24 06:36:39;;;;;;;12.10;9.70;;;;;;;16.78;52.31;95115.44;5115778;28;20490;-85
2021/09/24 06:39:06;;;;;;;11.50;9.20;;;;;;;17.30;50.17;95118.63;5116026;28;20455;-86
2021/09/24 06:41:33;;;;;;;13.90;8.47;;;;;;;17.76;47.45;95121.63;5080440;28;20439;-85
2021/09/24 06:44:00;;;;;;;16.17;9.30;;;;;;;17.96;47.78;95119.44;5115935;28;20442;-87
2021/09/24 06:46:27;;;;;;;13.40;9.43;;;;;;;18.12;48.06;95121.22;5114994;28;20520;-85
2021/09/24 06:48:55;;;;;;;15.50;9.20;;;;;;;18.04;46.48;95111.44;5115695;28;20442;-86
2021/09/24 06:51:22;;;;;;;16.93;9.43;;;;;;;18.02;46.70;95112.63;5116029;28;20446;-86
2021/09/24 06:53:49;;;;;;;19.77;9.90;;;;;;;17.86;48.58;95116.97;5115847;28;20439;-85
2021/09/24 06:56:18;;;;;;;13.50;8.70;;;;;;;18.18;49.65;95104.59;5116145;28;20817;-86
2021/09/24 06:58:45;;;;;;;10.57;8.80;;;;;;;18.30;47.02;95095.25;5080869;28;20471;-86
2021/09/24 07:01:13;;;;;;;13.63;10.20;;;;;;;18.54;46.61;95111.09;5080002;28;20447;-86
2021/09/24 07:03:40;;;;;;;13.60;9.23;;;;;;;18.69;45.47;95107.72;5115424;28;20528;-86
2021/09/24 07:06:09;;;;;;;12.53;9.20;;;;;;;18.17;45.64;95087.00;5115570;28;20640;-85
2021/09/24 07:08:35;;;;;;;8.70;7.40;;;;;;;18.13;46.92;95083.84;5115521;28;20523;-85
2021/09/24 07:11:02;;;;;;;13.67;9.17;;;;;;;18.10;46.31;95086.03;5095989;28;20443;-86
2021/09/24 07:13:29;;;;;;;11.47;7.37;;;;;;;18.28;48.01;95073.38;5115363;28;20443;-85
2021/09/24 07:15:56;;;;;;;10.97;8.47;;;;;;;17.85;47.06;95079.97;5115357;28;20807;-86
2021/09/24 07:18:23;;;;;;;17.60;10.73;;;;;;;17.00;48.48;95082.16;5115203;28;21053;-87
2021/09/24 07:20:50;;;;;;;11.67;8.43;;;;;;;17.16;49.46;95078.69;5114876;28;20435;-80
2021/09/24 07:23:18;;;;;;;11.33;8.60;;;;;;;16.68;53.27;95072.34;5078354;28;20448;-79
2021/09/24 07:25:45;;;;;;;10.60;8.80;;;;;;;16.92;51.73;95072.38;5115304;28;20532;-86
2021/09/24 07:28:12;;;;;;;15.40;8.73;;;;;;;16.53;50.86;95080.06;5115630;28;20523;-86
2021/09/24 07:30:39;;;;;;;14.57;8.70;;;;;;;16.34;51.64;95089.09;5115185;28;20484;-83
2021/09/24 07:33:07;;;;;;;14.07;8.67;;;;;;;16.55;50.74;95093.97;5114448;28;20526;-82
2021/09/24 07:35:34;;;;;;;12.37;8.87;;;;;;;16.52;54.30;95089.00;5114214;28;20517;-82
2021/09/24 07:38:01;;;;;;;16.23;9.30;;;;;;;16.31;52.93;95100.03;5114405;28;20489;-79
2021/09/24 07:40:29;;;;;;;17.70;10.10;;;;;;;16.39;53.16;95107.16;5113999;28;20449;-80
2021/09/24 07:42:57;;;;;;;17.47;10.73;;;;;;;16.15;54.41;95122.94;5114333;28;20530;-80
2021/09/24 07:45:24;;;;;;;15.80;10.73;;;;;;;16.33;55.71;95118.41;5113868;28;20888;-81
2021/09/24 07:47:52;;;;;;;22.43;10.63;;;;;;;16.41;53.37;95129.03;5114331;28;20434;-79
2021/09/24 07:50:19;;;;;;;17.10;10.17;;;;;;;16.27;52.54;95138.41;5113886;28;20791;-78
2021/09/24 07:52:46;;;;;;;15.17;10.50;;;;;;;16.22;53.84;95137.22;5113727;28;20444;-80
2021/09/24 07:55:13;;;;;;;15.47;10.87;;;;;;;16.45;53.70;95135.66;5111639;28;20942;-80
2021/09/24 07:57:42;;;;;;;13.50;10.03;;;;;;;16.64;53.06;95126.63;5111793;28;20571;-79
2021/09/24 08:00:09;;;;;;;22.30;11.20;;;;;;;16.46;52.35;95133.84;5113766;28;20448;-80
2021/09/24 08:02:36;;;;;;;15.10;12.10;;;;;;;16.33;53.74;95135.13;5114005;28;20439;-80
2021/09/24 08:05:03;;;;;;;24.93;11.50;;;;;;;16.43;52.97;95133.16;5113700;28;20773;-79
2021/09/24 08:07:30;;;;;;;20.13;10.90;;;;;;;16.20;52.89;95131.28;5077618;28;20443;-80
2021/09/24 08:09:57;;;;;;;22.63;10.63;;;;;;;16.36;52.99;95123.38;5094651;28;20953;-79
2021/09/24 08:12:24;;;;;;;13.90;10.73;;;;;;;16.45;53.39;95119.75;5113866;28;20435;-80
2021/09/24 08:14:53;;;;;;;12.67;10.30;;;;;;;16.67;53.06;95116.56;5113583;28;20443;-79
2021/09/24 08:17:19;;;;;;;13.63;10.37;;;;;;;16.81;51.71;95109.00;5113873;28;20478;-79
2021/09/24 08:19:46;;;;;;;12.40;10.43;;;;;;;16.55;52.66;95099.28;5113808;28;20449;-79
2021/09/24 08:22:13;;;;;;;14.83;9.97;;;;;;;16.97;51.87;95093.09;5093927;28;20434;-80
2021/09/24 08:24:41;;;;;;;16.27;11.33;;;;;;;17.23;50.89;95087.63;5113854;28;20484;-80
2021/09/24 08:27:09;;;;;;;14.53;10.73;;;;;;;17.53;50.40;95080.81;5113310;28;20447;-80
2021/09/24 08:29:36;;;;;;;17.07;10.50;;;;;;;17.86;51.70;95068.34;5113573;28;20452;-80
2021/09/24 08:32:05;;;;;;;12.17;10.63;;;;;;;18.07;47.91;95073.94;5113465;28;20454;-80
2021/09/24 08:34:33;;;;;;;13.50;8.60;;;;;;;18.27;48.93;95075.19;5113596;28;20448;-81
2021/09/24 08:37:01;;;;;;;16.43;10.97;;;;;;;18.24;47.23;95074.72;5113515;28;20482;-80
2021/09/24 08:39:29;;;;;;;12.23;9.90;;;;;;;17.66;48.02;95073.19;5113575;28;20443;-80
2021/09/24 08:41:56;;;;;;;13.60;9.90;;;;;;;17.92;48.64;95083.59;5113176;28;20444;-79
2021/09/24 08:44:23;;;;;;;15.13;10.33;;;;;;;17.99;47.40;95087.25;5113224;28;20435;-81
2021/09/24 08:46:51;;;;;;;16.63;9.57;;;;;;;17.94;48.14;95071.81;5113319;28;20539;-80
2021/09/24 08:49:21;;;;;;;14.47;10.43;;;;;;;18.15;49.63;95083.69;5113141;28;20453;-80
2021/09/24 08:51:49;;;;;;;20.30;10.63;;;;;;;18.20;48.93;95087.47;5113662;28;20448;-81
2021/09/24 08:54:16;;;;;;;19.60;10.90;;;;;;;18.25;48.39;95094.97;5113150;28;20441;-80
2021/09/24 08:56:43;;;;;;;15.33;9.70;;;;;;;18.19;47.68;95085.81;5113322;28;20485;-80
2021/09/24 08:59:10;;;;;;;15.43;10.60;;;;;;;18.34;48.41;95085.94;5113350;28;20448;-80
2021/09/24 09:01:57;;;;;;;17.10;11.23;;;;;;;18.18;48.23;95078.03;5113617;28;20441;-80
2021/09/24 09:04:35;;;;;;;17.53;11.13;;;;;;;18.34;47.50;95071.84;5113431;28;20451;-83
2021/09/24 09:07:10;;;;;;;15.27;10.60;;;;;;;18.48;47.67;95069.25;5113214;28;20458;-80
2021/09/24 09:09:39;;;;;;;11.97;9.23;;;;;;;18.58;47.46;95058.44;5114023;28;20443;-78
2021/09/24 09:12:14;;;;;;;12.50;9.50;;;;;;;18.00;47.56;95058.84;5117113;28;20451;-78
2021/09/24 09:14:42;;;;;;;16.70;9.97;;;;;;;18.11;48.73;95058.47;5116929;28;20979;-80
2021/09/24 09:17:27;;;;;;;10.97;9.20;;;;;;;17.89;47.92;95062.69;5116811;28;20492;-80
2021/09/24 09:20:15;;;;;;;11.97;9.77;;;;;;;18.07;48.68;95060.66;5033861;28;20455;-79
2021/09/24 09:22:43;;;;;;;12.63;9.13;;;;;;;18.06;47.60;95060.81;5033875;28;21023;-81
2021/09/24 09:25:14;;;;;;;13.93;9.50;;;;;;;18.31;49.54;95059.72;5033865;28;20448;-80
2021/09/24 09:27:48;;;;;;;10.67;9.30;;;;;;;18.46;47.54;95049.19;5033824;28;20455;-79
2021/09/24 09:30:15;;;;;;;13.67;8.63;;;;;;;18.48;47.52;95058.63;5033784;28;20922;-80
2021/09/24 09:32:44;;;;;;;16.60;9.53;;;;;;;18.50;46.25;95050.47;5033976;28;20437;-80
2021/09/24 09:35:11;;;;;;;12.40;9.07;;;;;;;18.64;49.44;95040.97;5034157;28;20455;-80
2021/09/24 09:37:40;;;;;;;12.40;7.93;;;;;;;18.89;46.53;95042.47;5033866;28;20484;-80
2021/09/24 09:40:10;;;;;;;11.33;8.37;;;;;;;18.82;45.61;95034.38;4985143;28;20442;-79
2021/09/24 09:42:40;;;;;;;10.93;7.63;;;;;;;18.56;46.67;95039.19;5034288;28;20445;-81
2021/09/24 09:45:09;;;;;;;10.20;8.33;;;;;;;18.74;46.98;95028.28;5033172;28;20445;-77
2021/09/24 09:47:38;;;;;;;21.47;9.87;;;;;;;18.41;46.13;95025.78;5033295;28;20826;-80
2021/09/24 09:50:07;;;;;;;14.83;11.20;;;;;;;18.48;46.68;95026.75;5033205;28;20456;-80
2021/09/24 09:52:53;;;;;;;12.57;8.90;;;;;;;18.40;46.79;95026.78;5000353;28;20437;-80
2021/09/24 09:55:22;;;;;;;13.50;8.27;;;;;;;18.68;47.34;95024.50;5033621;28;20459;-81
2021/09/24 09:57:51;;;;;;;13.33;8.83;;;;;;;18.85;46.32;95027.88;5096942;28;20585;-79
2021/09/24 10:00:18;;;;;;;13.73;8.20;;;;;;;18.81;45.05;95027.41;5116328;28;20443;-80
2021/09/24 10:02:47;;;;;;;12.70;8.50;;;;;;;19.02;45.88;95029.41;5080460;28;20521;-80
2021/09/24 10:05:32;;;;;;;9.33;7.57;;;;;;;19.19;45.54;95024.78;5115647;28;20801;-80
2021/09/24 10:08:01;;;;;;;9.70;6.90;;;;;;;19.26;45.35;95014.25;5115758;28;20454;-81
2021/09/24 10:10:29;;;;;;;11.70;8.67;;;;;;;19.34;44.53;95011.50;5116150;28;20457;-81
2021/09/24 10:13:05;;;;;;;8.67;6.90;;;;;;;19.50;44.94;95004.19;5115633;28;20445;-81
2021/09/24 10:15:32;;;;;;;8.90;7.33;;;;;;;19.68;44.91;95003.06;5115606;28;20767;-80
2021/09/24 10:18:00;;;;;;;24.83;7.63;;;;;;;19.79;45.02;95008.75;5115734;28;20822;-82
2021/09/24 10:20:27;;;;;;;13.20;7.87;;;;;;;19.92;45.53;94994.75;5115579;28;20458;-81
2021/09/24 10:22:54;;;;;;;10.57;6.63;;;;;;;19.85;42.95;94995.69;5114626;28;20458;-79
2021/09/24 10:25:22;;;;;;;9.47;6.90;;;;;;;19.88;43.55;94993.50;5096520;28;20512;-79
2021/09/24 10:27:51;;;;;;;8.70;6.50;;;;;;;19.91;43.16;94992.28;5115406;28;20472;-80
2021/09/24 10:30:25;;;;;;;13.33;6.90;;;;;;;20.01;43.19;94995.50;5115558;28;20435;-82
2021/09/24 10:32:54;;;;;;;8.17;6.20;;;;;;;20.09;43.15;94988.25;5115673;28;20473;-80
2021/09/24 10:35:21;;;;;;;8.70;6.93;;;;;;;20.25;42.59;94986.41;5115512;28;20439;-79
2021/09/24 10:37:50;;;;;;;9.97;6.63;;;;;;;20.34;44.40;94986.09;5115310;28;20475;-80
2021/09/24 10:40:28;;;;;;;10.73;6.73;;;;;;;20.21;41.70;94996.56;5115116;28;20443;-80
2021/09/24 10:42:58;;;;;;;14.33;6.60;;;;;;;20.44;42.24;94998.31;5115459;28;20935;-81
2021/09/24 10:45:39;;;;;;;7.40;6.43;;;;;;;20.60;43.00;94984.75;5115187;28;20481;-79
2021/09/24 10:48:08;;;;;;;7.03;6.30;;;;;;;20.71;42.06;94985.06;5115185;28;20496;-78
2021/09/24 10:51:05;;;;;;;25.67;17.80;;;;;;;20.88;42.70;94969.66;5115327;28;20447;-78
2021/09/24 10:53:42;;;;;;;8.43;7.13;;;;;;;20.94;42.40;94955.53;5115269;28;20538;-79
2021/09/24 10:56:31;;;;;;;7.60;6.00;;;;;;;21.12;43.19;94956.94;5115457;28;20526;-78
2021/09/24 10:59:25;;;;;;;7.53;5.67;;;;;;;21.26;40.83;94954.19;5032129;28;20487;-78
2021/09/24 11:01:53;;;;;;;4.90;4.07;;;;;;;21.36;37.04;94935.16;4972936;28;20467;-77
2021/09/24 11:04:20;;;;;;;7.10;3.83;;;;;;;21.43;36.51;94941.38;4973379;28;20544;-79
2021/09/24 11:06:51;;;;;;;8.60;3.30;;;;;;;21.48;33.51;94933.59;4940638;28;20444;-78
2021/09/24 11:09:19;;;;;;;2.80;2.60;;;;;;;21.41;33.13;94924.75;4973299;28;20465;-78
2021/09/24 11:11:48;;;;;;;3.33;3.13;;;;;;;21.41;32.84;94921.25;4973271;28;20439;-78
2021/09/24 11:14:35;;;;;;;6.00;3.80;;;;;;;21.55;34.99;94918.44;4973584;28;20538;-81
2021/09/24 11:17:06;;;;;;;5.05;3.50;;;;;;;21.50;33.60;94918.22;4973256;28;20883;-78
2021/09/24 11:19:35;;;;;;;3.60;3.30;;;;;;;21.56;32.90;94913.91;4941929;28;20534;-82
2021/09/24 11:22:07;;;;;;;7.75;4.05;;;;;;;21.68;32.87;94906.16;4971954;28;20500;-78
2021/09/24 11:24:36;;;;;;;4.43;3.47;;;;;;;21.72;34.37;94899.44;4973303;28;20217;-78
2021/09/24 11:27:05;;;;;;;3.37;3.07;;;;;;;21.80;33.07;94896.59;4972815;28;20626;-78
2021/09/24 11:29:36;;;;;;;3.17;2.70;;;;;;;21.76;32.96;94884.66;4972979;28;20439;-78
2021/09/24 11:32:11;;;;;;;4.77;3.27;;;;;;;21.74;33.67;94889.38;4972753;28;20447;-78
2021/09/24 11:34:55;;;;;;;5.70;3.83;;;;;;;21.68;34.93;94880.28;4972821;28;20530;-80
2021/09/24 11:37:24;;;;;;;4.07;3.77;;;;;;;21.62;34.66;94876.56;5017588;28;21029;-76